createdAt,value
2018-05-13T00:01:43.861Z,57.40
2018-05-13T00:04:12.450Z,57.45
2018-05-13T00:06:41.011Z,59.15
2018-05-13T00:09:09.516Z,60.90
2018-05-13T00:11:37.931Z,58.90
2018-05-13T00:14:06.384Z,58.84
2018-05-13T00:16:35.973Z,58.99
2018-05-13T00:19:05.319Z,59.57
2018-05-13T00:21:33.818Z,59.99
2018-05-13T00:24:02.317Z,58.79
2018-05-13T00:26:30.767Z,57.78
2018-05-13T00:28:59.202Z,58.55
2018-05-13T00:31:27.644Z,58.65
2018-05-13T00:33:56.218Z,58.34
2018-05-13T00:36:24.657Z,58.07
2018-05-13T00:38:53.151Z,57.65
2018-05-13T00:41:21.568Z,56.68
2018-05-13T00:43:50.160Z,60.51
2018-05-13T00:46:18.657Z,60.88
2018-05-13T00:48:48.113Z,60.63
2018-05-13T00:51:16.529Z,58.68
2018-05-13T00:53:44.922Z,59.43
2018-05-13T00:56:13.379Z,59.71
2018-05-13T00:58:41.795Z,58.28
2018-05-13T01:01:10.408Z,59.00
2018-05-13T01:03:38.866Z,58.33
2018-05-13T01:06:07.359Z,58.15
2018-05-13T01:08:36.703Z,58.10
2018-05-13T01:11:05.468Z,59.05
2018-05-13T01:13:34.087Z,58.13
2018-05-13T01:16:02.945Z,58.52
2018-05-13T01:18:31.536Z,57.16
2018-05-13T01:21:00.030Z,58.01
2018-05-13T01:23:28.463Z,57.46
2018-05-13T01:25:56.884Z,57.52
2018-05-13T01:28:25.283Z,57.45
2018-05-13T01:30:53.764Z,57.94
2018-05-13T01:33:22.133Z,57.81
2018-05-13T01:35:50.739Z,60.46
2018-05-13T01:38:19.187Z,58.84
2018-05-13T01:40:47.681Z,58.91
2018-05-13T01:43:16.116Z,58.19
2018-05-13T01:45:44.545Z,59.76
2018-05-13T01:48:13.124Z,59.85
2018-05-13T01:50:41.534Z,58.67
2018-05-13T01:53:09.998Z,59.07
2018-05-13T01:55:38.473Z,58.98
2018-05-13T01:58:06.907Z,58.24
2018-05-13T02:00:35.347Z,58.53
2018-05-13T02:03:03.791Z,59.17
2018-05-13T02:05:32.293Z,58.97
2018-05-13T02:08:00.816Z,59.82
2018-05-13T02:10:29.286Z,59.34
2018-05-13T02:12:57.781Z,59.09
2018-05-13T02:15:26.206Z,58.58
2018-05-13T02:17:55.182Z,58.94
2018-05-13T02:20:23.621Z,59.16
2018-05-13T02:22:56.020Z,59.78
2018-05-13T02:25:24.431Z,59.97
2018-05-13T02:27:52.889Z,61.04
2018-05-13T02:30:21.343Z,60.46
2018-05-13T02:32:49.791Z,59.14
2018-05-13T02:35:18.241Z,59.65
2018-05-13T02:37:46.770Z,61.10
2018-05-13T02:40:15.222Z,59.52
2018-05-13T02:42:43.667Z,60.82
2018-05-13T02:45:12.131Z,61.09
2018-05-13T02:47:40.595Z,60.20
2018-05-13T02:50:09.085Z,61.30
2018-05-13T02:52:37.591Z,60.74
2018-05-13T02:55:05.998Z,61.64
2018-05-13T02:57:34.381Z,60.92
2018-05-13T03:00:02.764Z,61.83
2018-05-13T03:02:36.435Z,60.97
2018-05-13T03:05:04.859Z,61.39
2018-05-13T03:07:33.495Z,60.31
2018-05-13T03:10:02.825Z,59.92
2018-05-13T03:12:31.326Z,60.30
2018-05-13T03:14:59.842Z,60.31
2018-05-13T03:17:28.252Z,59.80
2018-05-13T03:19:56.778Z,60.53
2018-05-13T03:22:25.260Z,61.29
2018-05-13T03:24:53.658Z,59.87
2018-05-13T03:27:22.046Z,59.76
2018-05-13T03:29:50.460Z,59.74
2018-05-13T03:32:19.080Z,59.92
2018-05-13T03:34:47.522Z,59.82
2018-05-13T03:37:15.924Z,60.14
2018-05-13T03:39:44.327Z,59.97
2018-05-13T03:42:12.714Z,60.58
2018-05-13T03:44:41.307Z,59.56
2018-05-13T03:47:09.898Z,60.98
2018-05-13T03:49:38.311Z,59.95
2018-05-13T03:52:06.729Z,60.69
2018-05-13T03:54:35.230Z,59.22
2018-05-13T03:57:03.635Z,59.22
2018-05-13T03:59:32.115Z,59.10
2018-05-13T04:02:00.507Z,60.03
2018-05-13T04:04:28.928Z,59.01
2018-05-13T04:06:57.419Z,60.06
2018-05-13T07:22:00.263Z,26.62
2018-05-13T07:24:30.537Z,27.23
2018-05-13T07:27:00.753Z,27.09
2018-05-13T07:29:31.068Z,26.36
2018-05-13T07:32:07.004Z,27.30
2018-05-13T07:34:37.230Z,26.40
2018-05-13T07:37:06.886Z,26.04
2018-05-13T07:39:35.283Z,26.54
2018-05-13T07:42:04.075Z,25.60
2018-05-13T07:44:32.756Z,24.79
2018-05-13T07:47:01.235Z,24.50
2018-05-13T07:49:29.703Z,24.92
2018-05-13T07:51:58.063Z,24.37
2018-05-13T07:54:26.515Z,24.63
2018-05-13T07:56:54.981Z,26.31
2018-05-13T07:59:23.360Z,26.65
2018-05-13T08:01:51.846Z,25.61
2018-05-13T08:04:20.327Z,23.44
2018-05-13T08:06:48.725Z,23.71
2018-05-13T08:09:18.461Z,23.78
2018-05-13T08:12:00.011Z,22.74
2018-05-13T08:14:30.088Z,24.89
2018-05-13T08:16:59.793Z,25.70
2018-05-13T08:19:28.274Z,26.94
2018-05-13T08:21:56.838Z,26.67
2018-05-13T08:24:26.132Z,27.89
2018-05-13T08:26:54.586Z,27.90
2018-05-13T08:29:22.958Z,26.97
2018-05-13T08:31:51.526Z,26.19
2018-05-13T08:34:19.953Z,26.30
2018-05-13T08:36:49.106Z,24.36
2018-05-13T08:39:19.094Z,24.32
2018-05-13T08:41:48.113Z,24.75
2018-05-13T08:44:16.723Z,22.95
2018-05-13T08:46:45.103Z,23.59
2018-05-13T08:49:13.576Z,22.88
2018-05-13T08:51:41.989Z,23.75
2018-05-13T08:54:10.433Z,22.27
2018-05-13T08:56:38.872Z,21.89
2018-05-13T08:59:07.921Z,22.29
2018-05-13T09:01:36.555Z,21.31
2018-05-13T09:04:04.942Z,20.95
2018-05-13T09:06:33.402Z,22.54
2018-05-13T09:09:01.848Z,21.73
2018-05-13T09:11:30.250Z,20.39
2018-05-13T09:13:58.653Z,20.90
2018-05-13T09:16:27.170Z,22.73
2018-05-13T09:18:55.577Z,23.48
2018-05-13T09:21:23.966Z,21.91
2018-05-13T09:23:52.357Z,21.26
2018-05-13T09:26:20.855Z,22.12
2018-05-13T09:28:49.344Z,21.97
2018-05-13T09:31:18.676Z,21.15
2018-05-13T09:33:47.088Z,21.46
2018-05-13T09:36:15.490Z,21.66
2018-05-13T09:38:43.898Z,20.43
2018-05-13T09:41:12.318Z,19.91
2018-05-13T09:43:40.698Z,21.23
2018-05-13T09:46:09.132Z,22.64
2018-05-13T09:48:37.567Z,22.00
2018-05-13T09:51:06.028Z,20.96
2018-05-13T09:53:34.397Z,21.50
2018-05-13T09:56:02.856Z,20.60
2018-05-13T09:58:31.301Z,21.75
2018-05-13T10:00:59.680Z,20.00
2018-05-13T10:03:28.212Z,19.54
2018-05-13T10:05:56.624Z,21.97
2018-05-13T10:08:25.013Z,24.05
2018-05-13T10:10:53.464Z,25.01
2018-05-13T10:13:21.900Z,24.32
2018-05-13T10:15:50.347Z,22.31
2018-05-13T10:18:18.755Z,21.04
2018-05-13T10:20:48.111Z,21.66
2018-05-13T10:23:16.502Z,21.84
2018-05-13T10:25:44.889Z,23.00
2018-05-13T10:28:13.373Z,22.33
2018-05-13T10:30:41.794Z,21.55
2018-05-13T10:33:11.300Z,23.17
2018-05-13T10:35:39.680Z,24.59
2018-05-13T10:38:08.118Z,26.87
2018-05-13T10:40:36.604Z,27.54
2018-05-13T10:43:04.995Z,27.59
2018-05-13T10:45:33.422Z,26.20
2018-05-13T10:48:01.889Z,27.67
2018-05-13T10:50:30.320Z,29.02
2018-05-13T10:52:58.778Z,30.27
2018-05-13T10:55:27.212Z,28.65
2018-05-13T10:57:56.011Z,27.82
2018-05-13T11:00:24.432Z,29.55
2018-05-13T11:02:53.795Z,27.22
2018-05-13T11:05:22.459Z,24.94
2018-05-13T11:07:51.133Z,24.69
2018-05-13T11:10:19.853Z,25.51
2018-05-13T11:12:48.363Z,23.85
2018-05-13T11:15:16.749Z,25.35
2018-05-13T11:17:45.260Z,25.86
2018-05-13T11:20:13.816Z,25.33
2018-05-13T11:22:42.270Z,24.36
2018-05-13T11:25:10.671Z,25.53
2018-05-13T11:27:39.080Z,27.09
2018-05-13T11:30:08.026Z,27.26
2018-05-13T11:32:46.275Z,28.24
2018-05-13T11:38:33.264Z,30.18
2018-05-13T11:41:14.945Z,32.10
2018-05-13T11:46:40.703Z,30.20
2018-05-13T11:49:13.334Z,32.33
2018-05-13T11:54:23.130Z,31.59
2018-05-13T11:56:57.883Z,32.41
2018-05-13T11:59:28.886Z,32.60
2018-05-13T12:04:30.611Z,34.00
2018-05-13T12:07:00.368Z,34.30
2018-05-13T12:09:29.352Z,34.60
2018-05-13T12:12:00.865Z,33.66
2018-05-13T12:14:30.071Z,35.26
2018-05-13T12:16:58.940Z,34.90
2018-05-13T12:19:27.421Z,34.81
2018-05-13T12:21:56.780Z,37.46
2018-05-13T12:24:25.366Z,39.18
2018-05-13T12:26:53.806Z,39.02
2018-05-13T12:29:22.358Z,38.61
2018-05-13T12:31:50.806Z,38.82
2018-05-13T12:34:19.289Z,40.27
2018-05-13T12:36:47.715Z,42.43
2018-05-13T12:39:16.117Z,43.43
2018-05-13T12:41:44.642Z,44.44
2018-05-13T12:44:13.050Z,44.33
2018-05-13T12:46:41.458Z,46.16
2018-05-13T12:49:09.912Z,45.76
2018-05-13T12:51:38.320Z,46.71
2018-05-13T12:54:06.788Z,46.72
2018-05-13T12:56:39.065Z,48.87
2018-05-13T12:59:07.701Z,49.08
2018-05-13T13:01:36.489Z,49.90
2018-05-13T13:04:04.949Z,50.72
2018-05-13T13:06:33.321Z,52.60
2018-05-13T13:09:01.860Z,52.72
2018-05-13T13:11:30.278Z,54.50
2018-05-13T13:13:58.689Z,53.69
2018-05-13T13:16:27.094Z,55.98
2018-05-13T13:18:55.493Z,55.37
2018-05-13T13:21:25.086Z,54.95
2018-05-13T13:23:56.577Z,56.50
2018-05-13T13:26:25.161Z,55.96
2018-05-13T13:28:53.611Z,57.27
2018-05-13T13:31:22.114Z,60.73
2018-05-13T13:33:51.433Z,64.20
2018-05-13T13:36:19.864Z,62.62
2018-05-13T13:38:48.311Z,62.03
2018-05-13T13:41:16.941Z,61.72
2018-05-13T13:43:45.318Z,62.00
2018-05-13T13:46:13.728Z,64.65
2018-05-13T13:48:42.219Z,64.36
2018-05-13T13:51:10.635Z,63.72
2018-05-13T13:53:39.100Z,63.97
2018-05-13T13:56:07.503Z,62.72
2018-05-13T13:58:35.911Z,62.49
2018-05-13T14:01:04.338Z,64.58
2018-05-13T14:03:32.727Z,61.07
2018-05-13T14:06:01.219Z,62.66
2018-05-13T14:08:29.627Z,65.72
2018-05-13T14:10:58.033Z,66.51
2018-05-13T14:13:26.483Z,66.71
2018-05-13T14:15:54.903Z,67.50
2018-05-13T14:18:23.390Z,67.86
2018-05-13T14:20:51.792Z,68.30
2018-05-13T14:23:20.214Z,66.91
2018-05-13T14:25:48.617Z,67.52
2018-05-13T14:28:17.026Z,67.72
2018-05-13T14:30:45.453Z,69.29
2018-05-13T14:33:13.893Z,67.66
2018-05-13T14:35:42.388Z,67.85
2018-05-13T14:38:10.803Z,67.25
2018-05-13T14:40:39.244Z,64.91
2018-05-13T14:43:07.686Z,66.86
2018-05-13T14:45:36.087Z,65.42
2018-05-13T14:48:04.537Z,65.19
2018-05-13T14:50:32.949Z,64.05
2018-05-13T14:53:01.371Z,65.14
2018-05-13T14:55:29.790Z,67.03
2018-05-13T14:57:58.237Z,65.92
2018-05-13T15:00:26.720Z,69.01
2018-05-13T15:02:55.257Z,67.57
2018-05-13T15:05:23.662Z,67.51
2018-05-13T15:07:52.093Z,66.91
2018-05-13T15:10:20.562Z,66.61
2018-05-13T15:12:49.000Z,66.58
2018-05-13T15:15:17.496Z,66.76
2018-05-13T15:17:45.900Z,67.13
2018-05-13T15:20:14.311Z,66.85
2018-05-13T15:22:42.720Z,68.29
2018-05-13T15:25:11.255Z,67.96
2018-05-13T15:27:39.682Z,66.99
2018-05-13T15:30:08.111Z,67.18
2018-05-13T15:32:36.548Z,65.82
2018-05-13T15:35:04.950Z,64.63
2018-05-13T15:37:33.424Z,64.18
2018-05-13T15:40:01.900Z,66.75
2018-05-13T15:42:30.388Z,66.72
2018-05-13T15:44:58.750Z,66.98
2018-05-13T15:47:27.147Z,67.76
2018-05-13T15:49:55.622Z,69.03
2018-05-13T15:52:24.031Z,66.18
2018-05-13T15:54:52.470Z,67.39
2018-05-13T15:57:20.880Z,66.66
2018-05-13T15:59:49.273Z,66.81
2018-05-13T16:02:17.745Z,70.15
2018-05-13T16:04:46.187Z,70.39
2018-05-13T16:07:14.673Z,71.17
2018-05-13T16:09:43.148Z,69.38
2018-05-13T16:12:11.647Z,66.65
2018-05-13T16:14:40.083Z,68.91
2018-05-13T16:17:08.513Z,69.04
2018-05-13T16:19:36.929Z,69.10
2018-05-13T16:22:05.333Z,69.60
2018-05-13T16:24:33.735Z,69.25
2018-05-13T16:27:02.208Z,69.65
2018-05-13T16:29:30.627Z,69.86
2018-05-13T16:31:59.076Z,69.46
2018-05-13T16:34:27.486Z,71.02
2018-05-13T16:36:55.931Z,70.98
2018-05-13T16:39:24.935Z,66.77
2018-05-13T16:41:53.351Z,68.17
2018-05-13T16:44:21.786Z,68.67
2018-05-13T16:46:50.193Z,68.62
2018-05-13T16:49:18.732Z,69.68
2018-05-13T16:51:47.222Z,68.68
2018-05-13T16:54:15.680Z,67.94
2018-05-13T16:56:52.366Z,69.59
2018-05-13T16:59:22.742Z,72.17
2018-05-13T17:01:51.154Z,72.74
2018-05-13T17:04:19.964Z,72.91
2018-05-13T17:06:48.427Z,72.36
2018-05-13T17:09:16.921Z,71.44
2018-05-13T17:11:45.842Z,72.62
2018-05-13T17:14:14.249Z,72.33
2018-05-13T17:16:42.668Z,75.02
2018-05-13T17:19:11.135Z,72.39
2018-05-13T17:21:39.639Z,71.42
2018-05-13T17:24:08.056Z,70.51
2018-05-13T17:26:36.458Z,71.59
2018-05-13T17:29:05.011Z,72.08
2018-05-13T17:31:33.411Z,72.37
2018-05-13T17:34:01.955Z,69.97
2018-05-13T17:36:30.400Z,71.09
2018-05-13T17:38:58.816Z,68.83
2018-05-13T17:41:27.215Z,67.73
2018-05-13T17:46:23.181Z,69.61
2018-05-13T17:48:51.683Z,71.02
2018-05-13T17:51:20.157Z,72.75
2018-05-13T17:53:48.552Z,74.93
2018-05-13T17:56:16.954Z,74.49
2018-05-13T17:58:45.406Z,74.43
2018-05-13T18:01:14.534Z,71.96
2018-05-13T18:03:42.954Z,73.71
2018-05-13T18:06:11.406Z,73.15
2018-05-13T18:08:39.847Z,71.20
2018-05-13T18:11:08.375Z,71.99
2018-05-13T18:13:36.807Z,73.12
2018-05-13T18:16:05.213Z,75.73
2018-05-13T18:18:33.716Z,73.17
2018-05-13T18:21:02.107Z,74.28
2018-05-13T18:23:30.669Z,72.70
2018-05-13T18:25:59.989Z,72.20
2018-05-13T18:28:28.513Z,72.81
2018-05-13T18:30:58.804Z,73.99
2018-05-13T18:33:28.939Z,71.60
2018-05-13T18:35:57.605Z,70.04
2018-05-13T18:38:27.437Z,67.80
2018-05-13T18:40:56.876Z,66.27
2018-05-13T18:43:29.182Z,65.70
2018-05-13T18:45:58.203Z,66.77
2018-05-13T18:48:27.371Z,66.58
2018-05-13T18:50:56.285Z,66.12
2018-05-13T18:53:25.317Z,66.44
2018-05-13T18:55:54.451Z,67.45
2018-05-13T18:58:22.909Z,68.18
2018-05-13T19:00:51.402Z,67.49
2018-05-13T19:05:54.582Z,69.98
2018-05-13T19:08:22.971Z,71.16
2018-05-13T19:10:51.381Z,70.45
2018-05-13T19:13:19.778Z,73.08
2018-05-13T19:15:48.210Z,69.17
2018-05-13T19:18:17.703Z,66.80
2018-05-13T19:20:46.236Z,67.67
2018-05-13T19:23:14.697Z,69.49
2018-05-13T19:25:43.113Z,70.76
2018-05-13T19:28:11.599Z,68.32
2018-05-13T19:30:40.064Z,67.03
2018-05-13T19:33:08.474Z,68.35
2018-05-13T19:35:36.924Z,70.39
2018-05-13T19:38:05.322Z,71.89
2018-05-13T19:40:33.730Z,69.08
2018-05-13T19:43:02.251Z,69.76
2018-05-13T19:45:30.694Z,72.03
2018-05-13T19:47:59.106Z,71.14
2018-05-13T19:50:27.584Z,72.00
2018-05-13T19:52:56.294Z,70.83
2018-05-13T19:55:24.872Z,71.53
2018-05-13T19:57:53.338Z,73.57
2018-05-13T20:00:21.778Z,73.91
2018-05-13T20:02:50.391Z,71.00
2018-05-13T20:05:18.778Z,71.70
2018-05-13T20:07:47.964Z,71.13
2018-05-13T20:10:16.380Z,74.58
2018-05-13T20:12:45.646Z,72.92
2018-05-13T20:15:15.281Z,74.28
2018-05-13T20:17:43.668Z,73.13
2018-05-13T20:20:12.034Z,73.47
2018-05-13T20:22:52.193Z,71.76
2018-05-13T20:25:21.193Z,71.96
2018-05-13T20:27:50.468Z,70.16
2018-05-13T20:30:19.858Z,70.07
2018-05-13T20:32:51.342Z,71.66
2018-05-13T20:35:23.354Z,71.25
2018-05-13T20:37:52.913Z,70.92
2018-05-13T20:40:22.450Z,73.54
2018-05-13T20:42:52.152Z,70.86
2018-05-13T20:45:20.720Z,72.71
2018-05-13T20:47:49.200Z,70.92
2018-05-13T20:50:17.618Z,72.20
2018-05-13T20:52:46.230Z,70.17
2018-05-13T20:55:16.946Z,74.01
2018-05-13T20:57:45.484Z,74.06
2018-05-13T21:00:13.924Z,73.72
2018-05-13T21:02:42.327Z,73.70
2018-05-13T21:05:10.693Z,74.30
2018-05-13T21:07:39.110Z,71.24
2018-05-13T21:10:07.477Z,72.01
2018-05-13T21:12:35.921Z,72.29
2018-05-13T21:15:04.299Z,71.34
2018-05-13T21:17:32.679Z,73.79
2018-05-13T21:20:01.042Z,74.53
2018-05-13T21:22:29.461Z,72.07
2018-05-13T21:24:57.872Z,74.52
2018-05-13T21:27:26.283Z,73.35
2018-05-13T21:29:54.717Z,75.29
2018-05-13T21:32:23.113Z,75.00
2018-05-13T21:34:51.534Z,75.46
2018-05-13T21:37:20.019Z,73.92
2018-05-13T21:39:48.446Z,72.44
2018-05-13T21:42:16.812Z,75.35
2018-05-13T21:44:45.185Z,73.51
2018-05-13T21:47:13.664Z,71.60
2018-05-13T21:49:42.020Z,72.45
2018-05-13T21:52:10.421Z,74.12
2018-05-13T21:54:38.939Z,73.58
2018-05-13T21:57:07.335Z,71.24
2018-05-13T21:59:35.708Z,74.48
2018-05-13T22:02:04.192Z,71.99
2018-05-13T22:04:32.570Z,74.25
2018-05-13T22:07:00.942Z,76.64
2018-05-13T22:09:29.413Z,74.50
2018-05-13T22:11:57.773Z,75.08
2018-05-13T22:14:26.212Z,78.18
2018-05-13T22:16:54.577Z,77.04
2018-05-13T22:19:23.026Z,77.03
2018-05-13T22:21:51.719Z,76.44
2018-05-13T22:24:20.091Z,76.20
2018-05-13T22:26:48.695Z,73.69
2018-05-13T22:29:17.074Z,76.52
2018-05-13T22:31:45.493Z,75.14
2018-05-13T22:34:13.902Z,72.20
2018-05-13T22:36:42.263Z,73.24
2018-05-13T22:39:10.741Z,74.97
2018-05-13T22:41:39.116Z,77.27
2018-05-13T22:44:07.493Z,75.12
2018-05-13T22:46:35.875Z,73.75
2018-05-13T22:49:04.256Z,71.67
2018-05-13T22:51:32.674Z,71.05
2018-05-13T22:54:01.045Z,70.45
2018-05-13T22:56:29.590Z,70.17
2018-05-13T22:58:57.992Z,70.25
2018-05-13T23:01:26.355Z,69.72
2018-05-13T23:03:54.746Z,68.55
2018-05-13T23:06:23.624Z,69.87
2018-05-13T23:08:53.088Z,70.31
2018-05-13T23:11:21.730Z,71.88
2018-05-13T23:13:50.134Z,69.83
2018-05-13T23:16:18.523Z,72.91
2018-05-13T23:18:46.930Z,69.26
2018-05-13T23:21:15.351Z,70.16
2018-05-13T23:23:43.715Z,70.53
2018-05-13T23:26:12.081Z,69.70
2018-05-13T23:28:40.441Z,68.19
2018-05-13T23:31:08.808Z,70.10
2018-05-13T23:33:37.292Z,69.46
2018-05-13T23:36:05.731Z,68.89
2018-05-13T23:38:34.096Z,67.44
2018-05-13T23:41:02.544Z,68.10
2018-05-13T23:43:30.957Z,68.03
2018-05-13T23:45:59.369Z,67.10
2018-05-13T23:48:27.721Z,67.95
2018-05-13T23:50:56.086Z,67.78
2018-05-13T23:56:07.942Z,70.27
2018-05-13T23:58:37.271Z,68.64
